Big Bear Station Historical Data
Daily Summary for May 25, 2017 Units:  English    Metric   Both
« Previous Day
Next Day »
Daily Weekly Monthly Yearly Custom
  High: Low: Average:
Temperature: 70.5 °F 43.5 °F 55.9 °F
Dew Point: 39.3 °F 4.6 °F 20.2 °F
Humidity: 42 % 16 % 25 %
Wind Speed: 7.8 mph 0.0 mph 3.1 mph
Wind Gust: 19.1 mph - -
Wind:- - SW
Pressure: 30.03 in 29.98 in -
Precipitation: 0.00 in    
Historical Graphs
 
 
Tabular Data for May 25, 2017
Time Temperature Dew Point Pressure Wind Wind Speed Wind Gust Humidity Rainfall Rate (Hourly)
00:08 51.6 °F 28.7 °F 30.03 in ESE 1.7 mph -999.0 mph 41 % 0 in
00:23 51.6 °F 23.4 °F 30.03 in WSW 2.2 mph -999.0 mph 33 % 0 in
00:38 51.4 °F 19.4 °F 30.02 in Calm   -999.0 mph 28 % 0 in
00:53 50.9 °F 15.4 °F 30.02 in ESE 2.2 mph -999.0 mph 24 % 0 in
01:08 50.7 °F 14.2 °F 30.01 in Calm   -999.0 mph 23 % 0 in
01:24 50.7 °F 13.2 °F 30.01 in Calm   -999.0 mph 22 % 0 in
01:39 50.0 °F 12.6 °F 30.01 in Calm   -999.0 mph 22 % 0 in
01:54 49.8 °F 12.4 °F 30.01 in West 1.1 mph -999.0 mph 22 % 0 in
02:09 49.8 °F 14.4 °F 30.01 in Calm   -999.0 mph 24 % 0 in
02:24 49.5 °F 16.9 °F 30.01 in Calm   -999.0 mph 27 % 0 in
02:40 48.2 °F 16.6 °F 30.01 in Calm   -999.0 mph 28 % 0 in
02:55 47.7 °F 11.7 °F 30.00 in SSW 1.7 mph -999.0 mph 23 % 0 in
03:10 48.2 °F 7.8 °F 30.00 in WSW 1.7 mph -999.0 mph 19 % 0 in
03:26 48.6 °F 11.4 °F 29.99 in South 1.7 mph -999.0 mph 22 % 0 in
03:41 48.2 °F 10.0 °F 29.99 in SSW 1.7 mph -999.0 mph 21 % 0 in
03:56 48.2 °F 7.8 °F 29.99 in SSE 1.1 mph -999.0 mph 19 % 0 in
04:11 47.5 °F 9.5 °F 29.99 in SSE 2.7 mph -999.0 mph 21 % 0 in
04:26 46.0 °F 14.7 °F 29.99 in SSE 2.2 mph -999.0 mph 28 % 0 in
04:42 45.3 °F 14.9 °F 29.99 in SSE 2.2 mph -999.0 mph 29 % 0 in
04:57 44.6 °F 13.5 °F 29.99 in South 2.2 mph -999.0 mph 28 % 0 in
05:12 44.6 °F 8.1 °F 30.00 in SE 2.7 mph -999.0 mph 22 % 0 in
05:27 44.1 °F 13.0 °F 29.99 in South 2.7 mph -999.0 mph 28 % 0 in
05:42 43.9 °F 17.3 °F 29.99 in SSE 2.2 mph -999.0 mph 34 % 0 in
05:58 43.5 °F 10.8 °F 29.99 in SSE 1.7 mph -999.0 mph 26 % 0 in
06:13 43.5 °F 14.8 °F 29.99 in South 1.7 mph -999.0 mph 31 % 0 in
06:28 44.8 °F 14.4 °F 30.00 in South 2.2 mph -999.0 mph 29 % 0 in
06:44 45.9 °F 10.1 °F 30.00 in SE 1.7 mph -999.0 mph 23 % 0 in
06:59 48.2 °F 9.0 °F 30.00 in Calm   -999.0 mph 20 % 0 in
07:14 50.5 °F 10.9 °F 30.00 in NNW 2.7 mph -999.0 mph 20 % 0 in
07:29 52.0 °F 14.3 °F 30.00 in NW 1.7 mph -999.0 mph 22 % 0 in
07:44 53.8 °F 13.6 °F 30.00 in WSW 2.2 mph -999.0 mph 20 % 0 in
08:00 55.0 °F 10.9 °F 30.00 in NNE 7.3 mph -999.0 mph 17 % 0 in
08:15 56.1 °F 13.1 °F 30.00 in ESE 2.2 mph -999.0 mph 18 % 0 in
08:30 57.0 °F 12.6 °F 30.00 in NNE 4.7 mph -999.0 mph 17 % 0 in
08:46 58.1 °F 16.0 °F 30.01 in NNW 3.7 mph -999.0 mph 19 % 0 in
09:01 58.8 °F 16.6 °F 30.01 in WNW 4.7 mph -999.0 mph 19 % 0 in
09:16 59.5 °F 18.4 °F 30.01 in NNW 4.2 mph -999.0 mph 20 % 0 in
09:31 60.4 °F 16.7 °F 30.01 in WNW 6.8 mph -999.0 mph 18 % 0 in
09:47 61.5 °F 17.6 °F 30.01 in NE 5.3 mph -999.0 mph 18 % 0 in
10:02 63.7 °F 20.6 °F 30.01 in WNW 7.8 mph -999.0 mph 19 % 0 in
10:17 63.5 °F 16.5 °F 30.01 in WNW 3.7 mph -999.0 mph 16 % 0 in
10:32 63.5 °F 19.2 °F 30.01 in NW 6.3 mph -999.0 mph 18 % 0 in
10:48 63.7 °F 16.6 °F 30.01 in North 5.8 mph -999.0 mph 16 % 0 in
11:03 64.4 °F 21.2 °F 30.01 in NW 4.7 mph -999.0 mph 19 % 0 in
11:18 66.0 °F 19.9 °F 30.01 in NW 4.2 mph -999.0 mph 17 % 0 in
11:33 67.3 °F 22.3 °F 30.01 in WNW 4.7 mph -999.0 mph 18 % 0 in
11:48 67.1 °F 19.4 °F 30.02 in NW 6.3 mph -999.0 mph 16 % 0 in
12:04 68.4 °F 23.2 °F 30.02 in NW 6.8 mph -999.0 mph 18 % 0 in
12:19 68.9 °F 24.9 °F 30.01 in NW 5.3 mph -999.0 mph 19 % 0 in
12:34 69.8 °F 25.7 °F 30.02 in NNW 4.7 mph -999.0 mph 19 % 0 in
12:50 69.4 °F 26.6 °F 30.01 in SSW 5.8 mph -999.0 mph 20 % 0 in
13:05 69.6 °F 22.8 °F 30.01 in NW 7.3 mph -999.0 mph 17 % 0 in
13:20 70.5 °F 28.7 °F 30.01 in NW 6.8 mph -999.0 mph 21 % 0 in
13:35 68.0 °F 36.2 °F 30.01 in SW 5.3 mph -999.0 mph 31 % 0 in
13:51 67.5 °F 35.8 °F 30.01 in NNW 5.8 mph -999.0 mph 31 % 0 in
14:06 69.1 °F 36.4 °F 30.00 in West 6.3 mph -999.0 mph 30 % 0 in
14:22 67.5 °F 38.9 °F 30.00 in West 2.7 mph 19.1 mph 35 % 0 in
14:37 67.1 °F 39.3 °F 30.00 in SW 2.2 mph -999.0 mph 36 % 0 in
14:52 67.5 °F 35.8 °F 30.00 in SW 4.7 mph -999.0 mph 31 % 0 in
15:08 66.6 °F 37.4 °F 30.00 in SW 3.7 mph -999.0 mph 34 % 0 in
15:23 67.5 °F 35.8 °F 29.99 in NW 3.7 mph -999.0 mph 31 % 0 in
15:39 68.0 °F 38.6 °F 29.99 in NNW 5.3 mph -999.0 mph 34 % 0 in
15:54 65.7 °F 38.0 °F 29.99 in NW 2.7 mph -999.0 mph 36 % 0 in
16:10 64.4 °F 38.9 °F 29.99 in NNE 2.7 mph -999.0 mph 39 % 0 in
16:25 64.9 °F 36.6 °F 29.99 in NW 3.7 mph -999.0 mph 35 % 0 in
16:40 66.4 °F 36.4 °F 29.99 in WNW 6.3 mph -999.0 mph 33 % 0 in
16:55 65.8 °F 35.1 °F 29.99 in North 3.2 mph -999.0 mph 32 % 0 in
17:11 65.1 °F 36.8 °F 29.99 in WNW 4.2 mph -999.0 mph 35 % 0 in
17:26 63.9 °F 35.7 °F 29.98 in NW 2.7 mph -999.0 mph 35 % 0 in
17:41 62.4 °F 37.1 °F 29.98 in West 5.8 mph -999.0 mph 39 % 0 in
17:56 61.0 °F 37.7 °F 29.98 in West 5.3 mph -999.0 mph 42 % 0 in
18:12 60.4 °F 36.6 °F 29.98 in WNW 4.7 mph -999.0 mph 41 % 0 in
18:27 59.9 °F 31.5 °F 29.98 in WNW 3.7 mph -999.0 mph 34 % 0 in
18:42 59.7 °F 32.0 °F 29.98 in West 4.2 mph -999.0 mph 35 % 0 in
18:57 59.0 °F 32.1 °F 29.98 in WSW 6.8 mph -999.0 mph 36 % 0 in
19:13 56.8 °F 30.1 °F 29.99 in East 2.2 mph -999.0 mph 36 % 0 in
19:28 53.8 °F 26.1 °F 29.99 in Calm   -999.0 mph 34 % 0 in
19:43 52.0 °F 19.9 °F 29.99 in Calm   -999.0 mph 28 % 0 in
19:58 51.3 °F 20.1 °F 29.99 in Calm   -999.0 mph 29 % 0 in
20:14 50.4 °F 20.1 °F 29.99 in Calm   -999.0 mph 30 % 0 in
20:29 48.9 °F 17.2 °F 29.99 in South 2.2 mph -999.0 mph 28 % 0 in
20:44 48.9 °F 10.6 °F 29.99 in South 2.7 mph -999.0 mph 21 % 0 in
20:59 48.9 °F 4.6 °F 29.99 in South 1.7 mph -999.0 mph 16 % 0 in
21:14 48.6 °F 11.4 °F 29.99 in Calm   -999.0 mph 22 % 0 in
21:30 48.7 °F 7.0 °F 29.99 in Calm   -999.0 mph 18 % 0 in
21:45 48.7 °F 9.4 °F 30.00 in ENE 1.7 mph -999.0 mph 20 % 0 in
22:00 47.7 °F 10.7 °F 30.00 in South 1.1 mph -999.0 mph 22 % 0 in
22:15 47.7 °F 8.5 °F 30.00 in SE 2.7 mph -999.0 mph 20 % 0 in
22:31 47.3 °F 9.3 °F 30.01 in SSE 1.1 mph -999.0 mph 21 % 0 in
22:46 46.9 °F 7.9 °F 30.01 in SSW 2.7 mph -999.0 mph 20 % 0 in
23:01 46.8 °F 6.7 °F 30.01 in SSE 2.2 mph -999.0 mph 19 % 0 in
23:16 47.1 °F 6.9 °F 30.01 in East 1.7 mph -999.0 mph 19 % 0 in
23:31 47.3 °F 8.2 °F 30.01 in SSE 1.7 mph -999.0 mph 20 % 0 in
23:47 46.8 °F 8.9 °F 30.01 in SSW 2.7 mph -999.0 mph 21 % 0 in
Big Bear CA Weather
Compliments of Weather Underground - 1.5 mb